Time;durP1;ratioP1;P1;durP2;ratioP2;P2;SDS_P1;SDS_P2;PMS_P1;PMS_P2;Temp;Humidity;BMP_temperature;BMP_pressure;BME280_temperature;BME280_humidity;BME280_pressure;Samples;Min_cycle;Max_cycle;Signal;HPM_P1;HPM_P2
2022/02/27 00:00:07;;;;;;;21.17;7.78;;;-0.30;99.90;;;;;;6103407;23;20009;-87
2022/02/27 00:02:32;;;;;;;21.63;7.50;;;-0.30;99.90;;;;;;6127649;23;20063;-87
2022/02/27 00:04:58;;;;;;;21.45;8.60;;;-0.40;99.90;;;;;;6127558;23;20429;-87
2022/02/27 00:07:23;;;;;;;18.38;7.68;;;-0.50;99.90;;;;;;6104326;23;20009;-86
2022/02/27 00:09:49;;;;;;;20.05;8.05;;;-0.60;99.90;;;;;;6103634;23;20100;-86
2022/02/27 00:12:14;;;;;;;20.98;6.72;;;-0.70;99.90;;;;;;6125392;23;20027;-87
2022/02/27 00:14:40;;;;;;;17.58;7.55;;;-0.70;99.90;;;;;;6104470;23;20109;-87
2022/02/27 00:17:07;;;;;;;22.45;8.23;;;-0.60;99.90;;;;;;6149738;23;20088;-87
2022/02/27 00:19:32;;;;;;;22.90;9.20;;;-0.60;99.90;;;;;;6124065;23;20028;-85
2022/02/27 00:21:58;;;;;;;21.27;7.82;;;-0.60;99.90;;;;;;6101340;23;20017;-87
2022/02/27 00:24:23;;;;;;;28.80;8.43;;;-0.60;99.90;;;;;;6094484;23;20377;-87
2022/02/27 00:26:49;;;;;;;23.02;9.55;;;-0.60;99.90;;;;;;6101909;23;20453;-87
2022/02/27 00:29:15;;;;;;;21.85;7.50;;;-0.60;99.90;;;;;;6102118;23;20009;-87
2022/02/27 00:31:40;;;;;;;27.63;8.48;;;-0.60;99.90;;;;;;6098427;23;20015;-86
2022/02/27 00:34:06;;;;;;;24.77;7.65;;;-0.60;99.90;;;;;;6122885;23;20067;-87
2022/02/27 00:36:31;;;;;;;18.13;8.77;;;-0.60;99.90;;;;;;6125291;23;20013;-87
2022/02/27 00:38:57;;;;;;;26.60;8.23;;;-0.60;99.90;;;;;;6101908;23;20076;-87
2022/02/27 00:41:22;;;;;;;17.38;7.97;;;-0.60;99.90;;;;;;6099484;23;20088;-87
2022/02/27 00:43:48;;;;;;;20.17;8.00;;;-0.70;99.90;;;;;;6102548;23;20020;-86
2022/02/27 00:46:13;;;;;;;27.85;8.20;;;-0.80;99.90;;;;;;6101345;23;20005;-87
2022/02/27 00:48:39;;;;;;;22.75;8.13;;;-0.80;99.90;;;;;;6102438;23;20016;-87
2022/02/27 00:51:05;;;;;;;21.58;8.00;;;-0.80;99.90;;;;;;6102181;23;20029;-86
2022/02/27 00:53:30;;;;;;;19.45;7.63;;;-0.70;99.90;;;;;;6125415;23;20067;-87
2022/02/27 00:55:56;;;;;;;19.90;9.00;;;-0.60;99.90;;;;;;6100028;23;20005;-87
2022/02/27 00:58:22;;;;;;;25.95;9.02;;;-0.60;99.90;;;;;;6102491;23;20001;-87
2022/02/27 01:00:47;;;;;;;18.38;7.40;;;-0.80;99.90;;;;;;6102486;23;20013;-87
2022/02/27 01:03:13;;;;;;;18.83;8.10;;;-1.00;99.90;;;;;;6100222;23;20016;-87
2022/02/27 01:05:38;;;;;;;17.15;7.15;;;-1.00;99.90;;;;;;6101080;23;20031;-88
2022/02/27 01:08:04;;;;;;;18.27;7.47;;;-1.20;99.90;;;;;;6101602;23;20080;-87
2022/02/27 01:10:30;;;;;;;21.08;7.90;;;-1.20;99.90;;;;;;6100932;23;20024;-87
2022/02/27 01:12:55;;;;;;;17.95;8.02;;;-1.20;99.90;;;;;;6125476;23;20021;-87
2022/02/27 01:15:21;;;;;;;20.27;7.85;;;-1.10;99.90;;;;;;6101216;23;20013;-87
2022/02/27 01:17:47;;;;;;;20.17;8.32;;;-1.10;99.90;;;;;;6102523;23;20131;-87
2022/02/27 01:20:13;;;;;;;19.13;9.15;;;-1.20;99.90;;;;;;6099628;23;20024;-87
2022/02/27 01:22:38;;;;;;;16.05;7.63;;;-1.20;99.90;;;;;;6100461;23;20017;-87
2022/02/27 01:25:05;;;;;;;20.90;8.10;;;-1.20;99.90;;;;;;6098912;23;20013;-87
2022/02/27 01:27:31;;;;;;;16.60;8.60;;;-1.20;99.90;;;;;;6102075;23;20005;-87
2022/02/27 01:29:57;;;;;;;16.48;7.63;;;-1.20;99.90;;;;;;6126120;23;20009;-86
2022/02/27 01:32:22;;;;;;;19.17;7.85;;;-1.10;99.90;;;;;;6099535;23;20509;-87
2022/02/27 01:34:48;;;;;;;13.70;6.65;;;-1.20;99.90;;;;;;6129263;23;20140;-86
2022/02/27 01:37:17;;;;;;;18.30;6.97;;;-1.10;99.90;;;;;;6103492;23;20036;-85
2022/02/27 01:39:42;;;;;;;27.10;7.50;;;-1.00;99.90;;;;;;6128701;23;20009;-87
2022/02/27 01:42:14;;;;;;;18.42;7.07;;;-1.10;99.90;;;;;;6102056;23;20088;-86
2022/02/27 01:44:41;;;;;;;17.15;7.28;;;-1.20;99.90;;;;;;6103639;23;20023;-88
2022/02/27 01:47:08;;;;;;;16.73;6.80;;;-1.30;99.90;;;;;;6104293;23;20017;-86
2022/02/27 01:49:33;;;;;;;14.73;6.88;;;-1.30;99.90;;;;;;6124033;23;20016;-87
2022/02/27 01:51:59;;;;;;;14.07;6.50;;;-1.40;99.90;;;;;;6103417;23;20056;-86
2022/02/27 01:54:24;;;;;;;17.90;7.05;;;-1.40;99.90;;;;;;6102795;23;20075;-84
2022/02/27 01:56:50;;;;;;;19.55;7.57;;;-1.40;99.90;;;;;;6103315;23;20548;-87
2022/02/27 01:59:16;;;;;;;17.50;7.25;;;-1.40;99.90;;;;;;6103478;23;20043;-86
2022/02/27 02:01:41;;;;;;;17.23;6.60;;;-1.40;99.90;;;;;;6104268;23;20040;-87
2022/02/27 02:04:08;;;;;;;20.45;6.57;;;-1.40;99.90;;;;;;6104517;23;20013;-86
2022/02/27 02:06:33;;;;;;;17.65;7.30;;;-1.30;99.90;;;;;;6104540;23;20013;-87
2022/02/27 02:08:59;;;;;;;30.60;9.50;;;-1.40;99.90;;;;;;6104291;23;20059;-87
2022/02/27 02:11:24;;;;;;;24.52;7.22;;;-1.40;99.90;;;;;;6104426;23;20009;-87
2022/02/27 02:13:50;;;;;;;25.58;6.00;;;-1.50;99.90;;;;;;6104038;23;20165;-87
2022/02/27 02:16:15;;;;;;;13.15;7.18;;;-1.70;99.90;;;;;;6128509;23;20009;-87
2022/02/27 02:18:41;;;;;;;19.10;7.55;;;-1.60;99.90;;;;;;6101608;23;20020;-87
2022/02/27 02:21:07;;;;;;;17.75;7.18;;;-1.60;99.90;;;;;;6103284;23;20273;-87
2022/02/27 02:23:32;;;;;;;17.02;7.20;;;-1.60;99.90;;;;;;6153508;23;20024;-87
2022/02/27 02:26:01;;;;;;;18.80;6.53;;;-1.70;99.90;;;;;;6101412;23;20009;-87
2022/02/27 02:28:27;;;;;;;19.40;6.90;;;-1.70;99.90;;;;;;6126451;23;20016;-88
2022/02/27 02:30:52;;;;;;;16.58;6.20;;;-1.50;99.90;;;;;;6126536;23;20009;-87
2022/02/27 02:33:18;;;;;;;20.33;6.80;;;-1.50;99.90;;;;;;6102614;23;20017;-86
2022/02/27 02:35:45;;;;;;;20.90;7.15;;;-1.40;99.90;;;;;;6102370;23;20078;-87
2022/02/27 02:38:10;;;;;;;20.17;6.75;;;-1.50;99.90;;;;;;6104008;23;20037;-87
2022/02/27 02:40:36;;;;;;;16.52;7.65;;;-1.50;99.90;;;;;;6101385;23;20024;-87
2022/02/27 02:43:01;;;;;;;21.08;6.63;;;-1.40;99.90;;;;;;6101863;23;20017;-87
2022/02/27 02:45:28;;;;;;;20.77;6.82;;;-1.50;99.90;;;;;;6101957;23;20473;-85
2022/02/27 02:47:55;;;;;;;20.20;6.53;;;-1.60;99.90;;;;;;6103310;23;20394;-88
2022/02/27 02:50:22;;;;;;;20.23;7.72;;;-1.60;99.90;;;;;;6127404;23;20019;-87
2022/02/27 02:52:48;;;;;;;24.30;6.93;;;-1.70;99.90;;;;;;6102601;23;20442;-86
2022/02/27 02:55:15;;;;;;;19.60;6.82;;;-1.60;99.90;;;;;;6124156;23;20040;-88
2022/02/27 02:57:40;;;;;;;17.25;6.82;;;-1.60;99.90;;;;;;6103360;23;20009;-87
2022/02/27 03:00:08;;;;;;;16.02;6.50;;;-1.50;99.90;;;;;;6127277;23;20112;-87
2022/02/27 03:02:34;;;;;;;18.00;5.93;;;-1.60;99.90;;;;;;6123105;23;20020;-87
2022/02/27 03:05:00;;;;;;;22.92;7.78;;;-1.60;99.90;;;;;;6103650;23;20066;-86
2022/02/27 03:07:25;;;;;;;19.48;6.60;;;-1.60;99.90;;;;;;6104221;23;20088;-87
2022/02/27 03:09:51;;;;;;;14.23;6.63;;;-1.60;99.90;;;;;;6100001;23;20037;-87
2022/02/27 03:12:16;;;;;;;19.00;6.72;;;-1.60;99.90;;;;;;6102572;23;20021;-87
2022/02/27 03:14:43;;;;;;;18.15;6.43;;;-1.60;99.90;;;;;;6104013;23;20019;-88
2022/02/27 03:17:09;;;;;;;16.85;6.15;;;-1.60;99.90;;;;;;6127657;23;20005;-87
2022/02/27 03:19:34;;;;;;;25.58;6.93;;;-1.80;99.90;;;;;;6102899;23;20442;-86
2022/02/27 03:22:00;;;;;;;21.25;7.07;;;-1.80;99.90;;;;;;6102872;23;20013;-86
2022/02/27 03:24:25;;;;;;;24.33;7.95;;;-1.80;99.90;;;;;;6129465;23;20032;-87
2022/02/27 03:26:51;;;;;;;19.83;6.63;;;-1.70;99.90;;;;;;6100733;23;20013;-87
2022/02/27 03:29:16;;;;;;;23.15;6.80;;;-1.60;99.90;;;;;;6103945;23;20068;-88
2022/02/27 03:31:42;;;;;;;22.95;6.68;;;-1.60;99.90;;;;;;6102797;23;20020;-88
2022/02/27 03:34:07;;;;;;;20.70;6.80;;;-1.50;99.90;;;;;;6099588;23;20005;-87
2022/02/27 03:36:34;;;;;;;23.20;7.35;;;-1.50;99.90;;;;;;6103751;23;20009;-87
2022/02/27 03:39:00;;;;;;;18.63;6.25;;;-1.50;99.90;;;;;;6152987;23;20008;-88
2022/02/27 03:41:25;;;;;;;19.27;7.30;;;-1.50;99.90;;;;;;6102117;23;20083;-88
2022/02/27 03:43:51;;;;;;;19.92;6.38;;;-1.50;99.90;;;;;;6127085;23;20005;-88
2022/02/27 03:46:16;;;;;;;18.38;7.07;;;-1.50;99.90;;;;;;6100867;23;20374;-87
2022/02/27 03:48:42;;;;;;;14.52;6.47;;;-1.60;99.90;;;;;;6099956;23;20438;-87
2022/02/27 03:51:07;;;;;;;21.77;7.30;;;-1.60;99.90;;;;;;6101946;23;20008;-88
2022/02/27 03:53:33;;;;;;;23.85;6.88;;;-1.80;99.90;;;;;;6102135;23;20047;-84
2022/02/27 03:55:58;;;;;;;19.27;6.97;;;-1.80;99.90;;;;;;6100998;23;20342;-84
2022/02/27 03:58:24;;;;;;;18.98;6.90;;;-1.80;99.90;;;;;;6125058;23;20091;-84
2022/02/27 04:00:49;;;;;;;14.75;6.60;;;-1.80;99.90;;;;;;6124431;23;20469;-84
2022/02/27 04:03:15;;;;;;;18.50;7.03;;;-1.80;99.90;;;;;;6123651;23;20017;-84
2022/02/27 04:05:42;;;;;;;19.65;6.82;;;-1.90;99.90;;;;;;6123665;23;20346;-84
2022/02/27 04:08:08;;;;;;;21.23;7.13;;;-1.80;99.90;;;;;;6101167;23;20585;-84
2022/02/27 04:10:33;;;;;;;18.50;7.20;;;-1.80;99.90;;;;;;6098788;23;20037;-84
2022/02/27 04:12:59;;;;;;;16.80;6.70;;;-1.80;99.90;;;;;;6126932;23;20045;-85
2022/02/27 04:15:25;;;;;;;15.55;6.32;;;-1.80;99.90;;;;;;6101645;23;20460;-85
2022/02/27 04:17:50;;;;;;;17.77;6.55;;;-1.80;99.90;;;;;;6100403;23;20040;-85
2022/02/27 04:20:16;;;;;;;20.50;7.35;;;-1.90;99.90;;;;;;6100540;23;20017;-84
2022/02/27 04:22:41;;;;;;;17.33;6.20;;;-1.90;99.90;;;;;;6125536;23;20015;-84
2022/02/27 04:25:07;;;;;;;15.90;6.68;;;-2.00;99.90;;;;;;6123286;23;20023;-84
2022/02/27 04:27:33;;;;;;;15.45;7.60;;;-2.00;99.90;;;;;;6101234;23;20350;-85
2022/02/27 04:29:58;;;;;;;20.33;7.72;;;-2.00;99.90;;;;;;6126058;23;20009;-85
2022/02/27 04:32:24;;;;;;;17.55;7.07;;;-2.00;99.90;;;;;;6125001;23;20013;-85
2022/02/27 04:34:49;;;;;;;22.00;7.82;;;-2.10;99.90;;;;;;6124905;23;20055;-85
2022/02/27 04:37:15;;;;;;;20.95;7.47;;;-2.10;99.90;;;;;;6101537;23;20009;-84
2022/02/27 04:39:41;;;;;;;27.75;8.45;;;-2.10;99.90;;;;;;6123229;23;20044;-84
2022/02/27 04:42:07;;;;;;;19.30;7.80;;;-2.10;99.90;;;;;;6124413;23;20020;-85
2022/02/27 04:44:32;;;;;;;19.25;7.25;;;-2.10;99.90;;;;;;6101088;23;20019;-85
2022/02/27 04:46:58;;;;;;;18.05;7.10;;;-2.10;99.90;;;;;;6122700;23;20016;-85
2022/02/27 04:49:25;;;;;;;19.33;7.45;;;-2.10;99.90;;;;;;6099193;23;20009;-85
2022/02/27 04:51:50;;;;;;;19.73;7.32;;;-2.10;99.90;;;;;;6100277;23;20087;-85
2022/02/27 04:54:16;;;;;;;16.08;6.55;;;-2.10;99.90;;;;;;6099655;23;20105;-84
2022/02/27 04:56:42;;;;;;;13.20;7.03;;;-2.20;99.90;;;;;;6100199;23;20020;-84
2022/02/27 04:59:08;;;;;;;19.95;7.38;;;-2.10;99.90;;;;;;6100827;23;20029;-85
2022/02/27 05:01:33;;;;;;;18.77;6.85;;;-2.20;99.90;;;;;;6123819;23;20017;-85
2022/02/27 05:03:59;;;;;;;18.05;7.18;;;-2.20;99.90;;;;;;6101110;23;20059;-84
2022/02/27 05:06:24;;;;;;;16.50;6.25;;;-2.20;99.90;;;;;;6125346;23;20009;-84
2022/02/27 05:08:50;;;;;;;19.42;7.03;;;-2.20;99.90;;;;;;6100926;23;20016;-84
2022/02/27 05:11:15;;;;;;;15.43;6.93;;;-2.40;99.90;;;;;;6100976;23;20036;-84
2022/02/27 05:13:41;;;;;;;21.13;6.75;;;-2.40;99.90;;;;;;6125733;23;20009;-84
2022/02/27 05:16:06;;;;;;;18.88;5.97;;;-2.40;99.90;;;;;;6098556;23;20011;-84
2022/02/27 05:18:32;;;;;;;17.52;6.85;;;-2.30;99.90;;;;;;6103401;23;20025;-85
2022/02/27 05:20:57;;;;;;;18.98;6.90;;;-2.40;99.90;;;;;;6101204;23;20024;-85
2022/02/27 05:23:24;;;;;;;27.00;7.65;;;-2.30;99.90;;;;;;6101535;23;20335;-84
2022/02/27 05:25:57;;;;;;;21.85;7.72;;;-2.50;99.90;;;;;;6126449;23;20013;-84
2022/02/27 05:28:23;;;;;;;13.35;6.32;;;-2.40;99.90;;;;;;6127880;23;20036;-84
2022/02/27 05:30:48;;;;;;;20.25;7.85;;;-2.40;99.90;;;;;;6096290;23;20434;-84
2022/02/27 05:33:14;;;;;;;16.02;8.00;;;-2.40;99.90;;;;;;6126847;23;20409;-84
2022/02/27 05:35:40;;;;;;;22.45;8.30;;;-2.50;99.90;;;;;;6127701;23;20358;-85
2022/02/27 05:38:05;;;;;;;17.48;7.43;;;-2.50;99.90;;;;;;6101191;23;20013;-85
2022/02/27 05:40:31;;;;;;;26.17;8.32;;;-2.50;99.90;;;;;;6103189;23;20013;-85
2022/02/27 05:42:56;;;;;;;17.13;7.43;;;-2.50;99.90;;;;;;6127207;23;20015;-85
2022/02/27 05:45:22;;;;;;;28.98;8.73;;;-2.50;99.90;;;;;;6100343;23;20088;-84
2022/02/27 05:47:47;;;;;;;19.33;8.00;;;-2.50;99.90;;;;;;6102076;23;20319;-85
2022/02/27 05:50:13;;;;;;;22.88;8.20;;;-2.70;99.90;;;;;;6101419;23;20092;-84
2022/02/27 05:52:38;;;;;;;28.30;8.52;;;-2.60;99.90;;;;;;6099298;23;20096;-85
2022/02/27 05:55:05;;;;;;;17.05;8.15;;;-2.50;99.90;;;;;;6103280;23;20024;-84
2022/02/27 05:57:30;;;;;;;16.27;7.85;;;-2.50;99.90;;;;;;6127467;23;20434;-84
2022/02/27 05:59:56;;;;;;;21.05;8.55;;;-2.50;99.90;;;;;;6101923;23;20067;-85
2022/02/27 06:02:21;;;;;;;19.17;8.05;;;-2.50;99.90;;;;;;6102280;23;20100;-85
2022/02/27 06:04:48;;;;;;;19.27;8.05;;;-2.50;99.90;;;;;;6088120;23;20084;-85
2022/02/27 06:07:13;;;;;;;17.08;7.20;;;-2.50;99.90;;;;;;6102337;23;20005;-85
2022/02/27 06:09:39;;;;;;;19.75;7.47;;;-2.50;99.90;;;;;;6112618;23;20017;-85
2022/02/27 06:12:05;;;;;;;24.30;7.95;;;-2.50;99.90;;;;;;6126893;23;20100;-85
2022/02/27 06:14:30;;;;;;;20.02;7.18;;;-2.60;99.90;;;;;;6126686;23;20013;-85
2022/02/27 06:16:56;;;;;;;16.90;8.10;;;-2.70;99.90;;;;;;6101322;23;20017;-85
2022/02/27 06:19:21;;;;;;;21.85;8.70;;;-2.70;99.90;;;;;;6099979;23;20009;-85
2022/02/27 06:21:47;;;;;;;21.80;7.38;;;-2.70;99.90;;;;;;6126212;23;20439;-85
2022/02/27 06:24:13;;;;;;;26.77;8.80;;;-2.60;99.90;;;;;;6125791;23;20446;-85
2022/02/27 06:26:38;;;;;;;22.08;7.80;;;-2.70;99.90;;;;;;6126024;23;20048;-85
2022/02/27 06:29:04;;;;;;;21.63;7.97;;;-2.80;99.90;;;;;;6103440;23;20033;-84
2022/02/27 06:31:30;;;;;;;19.63;7.43;;;-2.70;99.90;;;;;;6123789;23;20013;-85
2022/02/27 06:33:56;;;;;;;17.45;7.95;;;-2.70;99.90;;;;;;6101034;23;20021;-85
2022/02/27 06:36:21;;;;;;;24.40;8.50;;;-2.60;99.90;;;;;;6098084;23;20323;-84
2022/02/27 06:38:47;;;;;;;23.00;8.43;;;-2.70;99.90;;;;;;6126833;23;20024;-85
2022/02/27 06:41:14;;;;;;;21.85;8.07;;;-2.80;99.90;;;;;;6100838;23;20005;-85
2022/02/27 06:43:41;;;;;;;17.92;9.30;;;-2.80;99.90;;;;;;6126581;23;20107;-85
2022/02/27 06:46:07;;;;;;;17.00;8.73;;;-2.70;99.90;;;;;;6124399;23;20338;-85
2022/02/27 06:48:33;;;;;;;18.75;9.55;;;-3.00;99.90;;;;;;6127099;23;20013;-84
2022/02/27 06:50:58;;;;;;;20.92;9.85;;;-2.90;99.90;;;;;;6126204;23;20015;-84
2022/02/27 06:53:24;;;;;;;16.73;8.27;;;-2.80;99.90;;;;;;6100296;23;20036;-84
2022/02/27 06:55:50;;;;;;;21.90;9.60;;;-2.60;99.90;;;;;;6127335;23;20430;-85
2022/02/27 06:58:18;;;;;;;28.38;9.88;;;-2.60;99.90;;;;;;6112786;23;20013;-84
2022/02/27 07:00:44;;;;;;;26.52;9.48;;;-2.60;99.90;;;;;;6101278;23;20036;-85
2022/02/27 07:03:10;;;;;;;27.80;9.82;;;-2.60;99.90;;;;;;6125986;23;20373;-85
2022/02/27 07:05:36;;;;;;;26.10;10.25;;;-2.50;99.90;;;;;;6102748;23;20013;-85
2022/02/27 07:08:01;;;;;;;22.85;9.95;;;-2.60;99.90;;;;;;6175118;23;20111;-85
2022/02/27 07:10:27;;;;;;;22.25;10.48;;;-2.50;99.90;;;;;;6100825;23;20064;-85
2022/02/27 07:12:53;;;;;;;23.08;9.77;;;-2.60;99.90;;;;;;6125441;23;20453;-85
2022/02/27 07:15:18;;;;;;;29.27;10.32;;;-2.50;99.90;;;;;;6101432;23;20066;-85
2022/02/27 07:17:44;;;;;;;23.02;10.27;;;-2.50;99.90;;;;;;6149875;23;20021;-85
2022/02/27 07:20:10;;;;;;;19.23;10.65;;;-2.50;99.90;;;;;;6149400;23;20032;-84
2022/02/27 07:22:36;;;;;;;29.20;10.10;;;-2.40;99.90;;;;;;6124598;23;20044;-84
2022/02/27 07:25:04;;;;;;;25.05;10.13;;;-2.30;99.90;;;;;;6126211;23;20011;-85
2022/02/27 07:27:30;;;;;;;29.55;11.40;;;-2.10;99.90;;;;;;6126224;23;20036;-85
2022/02/27 07:29:56;;;;;;;24.60;9.68;;;-2.30;99.90;;;;;;6124951;23;20425;-85
2022/02/27 07:32:21;;;;;;;30.10;11.32;;;-2.30;99.90;;;;;;6124187;23;20017;-85
2022/02/27 07:34:47;;;;;;;21.80;10.18;;;-2.00;99.90;;;;;;6150257;23;20020;-85
2022/02/27 07:37:13;;;;;;;28.92;11.73;;;-1.90;99.90;;;;;;6147517;23;20009;-85
2022/02/27 07:39:38;;;;;;;26.73;10.70;;;-1.70;99.90;;;;;;6151455;23;20013;-85
2022/02/27 07:42:04;;;;;;;23.95;10.43;;;-1.80;99.90;;;;;;6148464;23;20009;-85
2022/02/27 07:44:29;;;;;;;26.20;10.27;;;-1.70;99.90;;;;;;6125396;23;20345;-85
2022/02/27 07:46:56;;;;;;;21.92;11.27;;;-1.70;99.90;;;;;;6123027;23;20019;-85
2022/02/27 07:49:21;;;;;;;24.25;11.15;;;-1.50;99.90;;;;;;6148742;23;20013;-85
2022/02/27 07:51:47;;;;;;;26.92;10.40;;;-1.30;99.90;;;;;;6121910;23;20083;-85
2022/02/27 07:54:13;;;;;;;21.33;11.65;;;-1.30;99.90;;;;;;6122701;23;20104;-85
2022/02/27 07:56:38;;;;;;;17.67;9.98;;;-1.20;99.90;;;;;;6150283;23;20088;-85
2022/02/27 07:59:04;;;;;;;22.52;10.10;;;-1.10;99.90;;;;;;6121670;23;20032;-85
2022/02/27 08:01:29;;;;;;;24.17;10.68;;;-1.10;99.90;;;;;;6148399;23;20009;-85
2022/02/27 08:03:56;;;;;;;20.92;10.18;;;-0.90;99.90;;;;;;6124539;23;20005;-85
2022/02/27 08:06:22;;;;;;;26.52;10.55;;;-0.70;99.90;;;;;;6122870;23;20124;-86
2022/02/27 08:08:47;;;;;;;26.27;11.45;;;-0.80;99.90;;;;;;6148953;23;20466;-85
2022/02/27 08:11:13;;;;;;;24.65;10.38;;;-0.60;99.90;;;;;;6147516;23;20033;-85
2022/02/27 08:13:39;;;;;;;21.27;10.23;;;-0.50;99.90;;;;;;6123761;23;20430;-85
2022/02/27 08:16:05;;;;;;;21.20;9.57;;;-0.40;99.90;;;;;;6123980;23;20101;-85
2022/02/27 08:18:30;;;;;;;17.00;9.32;;;-0.10;99.90;;;;;;6100099;23;20019;-86
2022/02/27 08:20:59;;;;;;;23.45;9.95;;;-0.10;99.90;;;;;;6096967;23;20774;-85
2022/02/27 08:23:24;;;;;;;15.57;8.65;;;0.00;99.90;;;;;;6102176;23;20450;-85
2022/02/27 08:25:52;;;;;;;20.50;9.57;;;0.30;99.90;;;;;;6125956;23;20024;-85
2022/02/27 08:28:25;;;;;;;24.83;10.07;;;0.10;99.90;;;;;;6125539;23;20056;-85
2022/02/27 08:30:50;;;;;;;26.02;11.18;;;0.40;99.90;;;;;;6149298;23;20021;-85
2022/02/27 08:33:16;;;;;;;26.05;10.07;;;0.80;99.90;;;;;;6150019;23;20020;-86
2022/02/27 08:35:42;;;;;;;20.88;9.15;;;0.50;99.90;;;;;;6149951;23;20080;-85
2022/02/27 08:38:07;;;;;;;25.45;10.23;;;0.80;99.90;;;;;;6125315;23;20005;-85
2022/02/27 08:40:33;;;;;;;21.15;9.32;;;0.80;99.90;;;;;;6124779;23;20028;-85
2022/02/27 08:43:00;;;;;;;20.80;9.60;;;0.70;99.90;;;;;;6123076;23;20556;-86
2022/02/27 08:45:25;;;;;;;21.40;9.02;;;0.60;99.90;;;;;;6125245;23;20044;-85
2022/02/27 08:47:52;;;;;;;24.23;9.30;;;1.00;99.90;;;;;;6125435;23;20028;-86
2022/02/27 08:50:17;;;;;;;20.33;8.23;;;1.40;99.90;;;;;;6100159;23;20013;-86
2022/02/27 08:52:43;;;;;;;19.70;9.10;;;1.40;99.90;;;;;;6126541;23;20101;-86
2022/02/27 08:55:09;;;;;;;17.17;6.88;;;1.80;99.90;;;;;;6125711;23;20738;-86
2022/02/27 08:57:35;;;;;;;17.02;7.07;;;1.80;99.90;;;;;;6125702;23;20023;-86
2022/02/27 09:00:01;;;;;;;13.98;6.70;;;2.00;99.90;;;;;;6125162;23;20008;-85
2022/02/27 09:02:27;;;;;;;16.42;7.00;;;2.30;99.90;;;;;;6101096;23;20013;-86
2022/02/27 09:04:53;;;;;;;18.10;7.75;;;2.30;99.90;;;;;;6096805;23;20044;-86
2022/02/27 09:07:18;;;;;;;13.80;6.25;;;2.70;99.90;;;;;;6125016;23;20016;-86
2022/02/27 09:09:44;;;;;;;14.68;6.40;;;2.90;99.90;;;;;;6125129;23;20025;-86
2022/02/27 09:12:10;;;;;;;11.63;6.78;;;2.80;99.90;;;;;;6098457;23;20068;-86
2022/02/27 09:14:36;;;;;;;13.35;5.47;;;2.70;99.90;;;;;;6100689;23;20430;-85
2022/02/27 09:17:02;;;;;;;12.70;6.00;;;3.10;99.90;;;;;;6100678;23;20726;-85
2022/02/27 09:19:28;;;;;;;10.65;5.22;;;2.70;99.90;;;;;;6124803;23;20025;-85
2022/02/27 09:21:54;;;;;;;10.65;5.18;;;3.00;99.90;;;;;;6123880;23;20029;-85
2022/02/27 09:24:19;;;;;;;13.88;4.90;;;2.40;99.90;;;;;;6123696;23;20059;-85
2022/02/27 09:26:45;;;;;;;13.82;4.82;;;2.90;99.90;;;;;;6101638;23;20020;-85
2022/02/27 09:29:14;;;;;;;11.68;4.80;;;3.30;99.90;;;;;;6101153;23;20100;-85
2022/02/27 09:31:39;;;;;;;12.45;4.60;;;3.70;99.90;;;;;;6099896;23;20013;-85
2022/02/27 09:34:18;;;;;;;9.63;4.40;;;3.90;99.90;;;;;;6099443;23;20357;-85
2022/02/27 09:36:46;;;;;;;10.60;4.95;;;3.80;99.90;;;;;;6071591;23;20010;-85
2022/02/27 09:39:12;;;;;;;8.75;4.13;;;3.60;99.90;;;;;;6122903;23;20088;-85
2022/02/27 09:41:50;;;;;;;10.73;4.38;;;4.00;99.90;;;;;;6134992;23;20753;-86
2022/02/27 09:44:15;;;;;;;7.53;3.67;;;4.60;99.90;;;;;;6116458;23;20008;-86
2022/02/27 09:46:43;;;;;;;10.23;5.00;;;4.10;99.90;;;;;;6153740;23;20385;-85
2022/02/27 09:49:08;;;;;;;9.45;4.18;;;4.70;99.90;;;;;;6124352;23;20011;-85
2022/02/27 09:51:35;;;;;;;14.10;3.72;;;4.80;99.90;;;;;;6138076;23;20080;-85
2022/02/27 09:54:01;;;;;;;7.50;3.72;;;4.50;99.90;;;;;;6177071;23;20039;-85
2022/02/27 09:56:27;;;;;;;10.60;3.60;;;5.10;99.90;;;;;;6109002;23;20009;-85
2022/02/27 09:58:53;;;;;;;9.82;3.80;;;5.40;99.90;;;;;;6165357;23;20036;-85
2022/02/27 10:01:19;;;;;;;10.50;4.50;;;5.30;99.90;;;;;;6154331;23;20013;-86
2022/02/27 10:03:47;;;;;;;7.63;3.85;;;5.70;99.90;;;;;;6181070;23;20032;-86
2022/02/27 10:06:18;;;;;;;8.85;3.08;;;6.10;99.90;;;;;;6155795;23;20005;-86
2022/02/27 10:08:56;;;;;;;8.40;3.10;;;6.60;99.90;;;;;;6178556;23;20019;-86
2022/02/27 10:11:22;;;;;;;3.70;1.50;;;6.60;99.90;;;;;;6152653;23;20097;-86
2022/02/27 10:13:53;;;;;;;10.25;2.13;;;6.70;99.90;;;;;;6131015;23;20037;-85
2022/02/27 10:16:23;;;;;;;4.95;1.85;;;7.00;99.90;;;;;;6136308;23;20087;-86
2022/02/27 10:18:58;;;;;;;8.68;1.90;;;7.90;99.90;;;;;;6126579;23;20028;-86
2022/02/27 10:21:30;;;;;;;3.70;1.17;;;8.20;99.90;;;;;;6137795;23;20044;-86
2022/02/27 10:24:04;;;;;;;3.05;1.25;;;8.80;99.90;;;;;;6125838;23;20015;-86
2022/02/27 10:26:32;;;;;;;5.88;1.77;;;8.90;99.90;;;;;;6184066;23;20326;-86
2022/02/27 10:29:11;;;;;;;2.97;1.50;;;9.00;99.90;;;;;;6097652;23;20059;-86
2022/02/27 10:31:43;;;;;;;6.13;1.80;;;8.90;99.90;;;;;;6155836;23;20009;-86
2022/02/27 10:34:12;;;;;;;6.97;1.85;;;8.50;99.90;;;;;;6138480;23;20020;-86
2022/02/27 10:36:49;;;;;;;5.40;2.05;;;9.10;99.90;;;;;;6141441;23;20008;-85
2022/02/27 10:39:31;;;;;;;4.60;1.95;;;9.10;99.90;;;;;;6127020;23;20031;-86
2022/02/27 10:42:24;;;;;;;3.60;1.15;;;9.40;99.90;;;;;;6134941;23;20453;-86
2022/02/27 10:44:55;;;;;;;2.00;1.27;;;9.40;99.90;;;;;;6097882;23;20445;-86
2022/02/27 10:47:36;;;;;;;5.72;2.08;;;9.20;99.90;;;;;;6121785;23;20039;-90
2022/02/27 10:50:19;;;;;;;2.28;1.27;;;9.50;96.80;;;;;;6185336;23;20011;-88
2022/02/27 10:52:59;;;;;;;2.80;1.25;;;9.60;95.50;;;;;;6089499;23;20093;-89
2022/02/27 10:55:25;;;;;;;3.00;1.15;;;9.40;98.70;;;;;;6128362;23;20013;-89
2022/02/27 10:57:51;;;;;;;3.40;1.48;;;9.90;99.50;;;;;;6135010;23;20036;-88
2022/02/27 11:00:23;;;;;;;2.20;1.30;;;10.10;95.00;;;;;;6128169;23;20020;-89
2022/02/27 11:03:05;;;;;;;3.42;1.65;;;9.60;99.00;;;;;;6137471;23;20020;-89
2022/02/27 11:05:37;;;;;;;4.50;2.80;;;10.20;99.90;;;;;;6130215;23;20005;-89
2022/02/27 11:08:45;;;;;;;2.08;1.10;;;10.00;99.90;;;;;;6133113;23;20009;-89
2022/02/27 11:11:17;;;;;;;2.67;1.10;;;10.50;96.70;;;;;;6142865;23;20012;-90
2022/02/27 11:13:48;;;;;;;2.17;1.05;;;10.20;97.50;;;;;;6133042;23;20428;-88
2022/02/27 11:16:16;;;;;;;1.55;0.60;;;11.40;81.40;;;;;;6156738;23;20063;-87
2022/02/27 11:18:44;;;;;;;6.07;1.08;;;11.50;83.40;;;;;;6154600;23;20016;-89
2022/02/27 11:21:10;;;;;;;2.28;1.23;;;11.70;81.10;;;;;;6154623;23;20017;-88
2022/02/27 11:24:02;;;;;;;2.70;1.08;;;11.60;76.90;;;;;;6140934;23;20015;-89
2022/02/27 11:26:33;;;;;;;1.73;1.23;;;11.60;74.60;;;;;;6110526;23;20021;-88
2022/02/27 11:29:08;;;;;;;4.57;1.65;;;10.80;83.30;;;;;;6131732;23;20048;-87
2022/02/27 11:31:48;;;;;;;7.87;1.83;;;11.20;80.80;;;;;;6148502;23;20227;-86
2022/02/27 11:34:17;;;;;;;1.98;0.90;;;11.40;82.70;;;;;;6142051;23;20759;-88
2022/02/27 11:36:51;;;;;;;2.70;1.40;;;11.20;84.10;;;;;;6149944;23;20406;-89
2022/02/27 11:42:01;;;;;;;3.30;2.03;;;11.50;87.20;;;;;;6183014;23;20095;-89
2022/02/27 11:44:37;;;;;;;3.58;1.05;;;11.50;76.10;;;;;;6158132;23;20036;-89
2022/02/27 11:47:08;;;;;;;3.80;1.10;;;11.30;80.50;;;;;;6153878;23;20441;-89
2022/02/27 11:49:36;;;;;;;1.73;1.23;;;11.50;82.90;;;;;;6151217;23;20020;-87
2022/02/27 11:52:09;;;;;;;2.53;1.48;;;11.90;75.80;;;;;;6151013;23;20016;-89
2022/02/27 11:54:37;;;;;;;3.42;1.35;;;11.40;85.10;;;;;;6159490;23;20013;-88
2022/02/27 11:57:51;;;;;;;3.22;1.50;;;11.80;80.50;;;;;;6192636;23;20095;-88
2022/02/27 12:00:19;;;;;;;4.00;1.60;;;11.10;75.40;;;;;;6207024;23;20517;-88
2022/02/27 12:03:36;;;;;;;2.45;1.20;;;11.80;78.10;;;;;;6156766;23;20080;-88
2022/02/27 12:06:20;;;;;;;2.95;1.45;;;12.20;69.60;;;;;;6120787;23;20016;-88
2022/02/27 12:09:38;;;;;;;2.50;1.30;;;12.00;71.20;;;;;;6104084;23;20006;-88
2022/02/27 12:15:48;;;;;;;2.53;1.35;;;12.30;65.70;;;;;;6098739;23;20014;-88
2022/02/27 12:18:54;;;;;;;7.10;1.67;;;12.10;67.90;;;;;;6040726;23;20085;-88
2022/02/27 12:24:44;;;;;;;7.03;1.20;;;11.90;64.50;;;;;;6094573;23;20049;-89
2022/02/27 12:27:14;;;;;;;4.00;1.30;;;12.10;66.00;;;;;;6166568;23;20017;-88
2022/02/27 12:29:51;;;;;;;5.05;1.58;;;11.80;62.90;;;;;;6150163;23;20029;-88
2022/02/27 12:32:25;;;;;;;3.03;1.98;;;12.30;61.90;;;;;;6123082;23;20019;-88
2022/02/27 12:34:53;;;;;;;2.72;1.58;;;12.20;61.90;;;;;;6097282;23;20032;-88
2022/02/27 12:37:21;;;;;;;3.28;1.20;;;12.40;69.50;;;;;;6145349;23;20044;-89
2022/02/27 12:40:01;;;;;;;3.42;1.77;;;12.70;63.10;;;;;;6147362;23;20067;-88
2022/02/27 12:42:36;;;;;;;3.08;1.42;;;12.50;66.30;;;;;;6151924;23;20032;-88
2022/02/27 12:45:48;;;;;;;1.75;1.40;;;12.30;66.20;;;;;;6129468;23;20004;-88
2022/02/27 12:48:17;;;;;;;2.78;1.40;;;12.60;66.60;;;;;;6174621;23;20369;-88
2022/02/27 12:50:58;;;;;;;3.40;1.38;;;12.60;63.20;;;;;;6150501;23;20090;-89
2022/02/27 12:53:27;;;;;;;1.77;1.50;;;13.20;65.70;;;;;;6175190;23;20027;-88